Terminal Aerodrome Forecast
Issued by NWS

Home | Current Version | Previous Version | Text Only | Print | Product List | Glossary On
Versions: 1 2 3 4 5 6 7 8 9 10 11 12 13 14 15 16 17 18 19 20 21 22 23 24 25 26 27 28
000
FTUS45 KLKN 131700
TAFEKO
TAF
KEKO 131730Z 1318/1418 15007KT P6SM FEW120
     FM132100 17007KT P6SM SCT080
     FM140200 07003KT P6SM FEW120
     FM141700 20007KT P6SM SCT120=

USA.gov is the U.S. government's official web portal to all federal, state and local government web resources and services.